createdAt,value
2023-01-21T00:00:33.625Z,16.00
2023-01-21T00:05:36.414Z,15.50
2023-01-21T00:10:39.222Z,13.30
2023-01-21T00:15:43.555Z,14.65
2023-01-21T00:20:46.612Z,14.35
2023-01-21T00:25:49.469Z,11.02
2023-01-21T00:30:58.091Z,13.73
2023-01-21T00:36:02.137Z,12.93
2023-01-21T00:41:06.620Z,13.90
2023-01-21T00:46:11.967Z,13.38
2023-01-21T00:51:14.764Z,16.17
2023-01-21T00:56:17.630Z,12.68
2023-01-21T01:01:23.444Z,15.93
2023-01-21T01:06:26.323Z,14.82
2023-01-21T01:11:29.441Z,15.65
2023-01-21T01:16:33.664Z,16.85
2023-01-21T01:21:36.490Z,17.17
2023-01-21T01:26:42.217Z,14.82
2023-01-21T01:31:46.657Z,16.23
2023-01-21T01:36:50.348Z,19.10
2023-01-21T01:41:54.386Z,16.48
2023-01-21T01:47:01.135Z,17.63
2023-01-21T01:57:11.558Z,12.18
2023-01-21T02:02:18.264Z,15.35
2023-01-21T02:12:24.929Z,15.68
2023-01-21T02:17:41.907Z,15.82
2023-01-21T02:22:53.581Z,14.95
2023-01-21T02:28:20.777Z,15.77
2023-01-21T02:33:47.576Z,16.23
2023-01-21T02:38:59.103Z,17.80
2023-01-21T02:44:08.905Z,15.68
2023-01-21T02:49:21.135Z,15.27
2023-01-21T02:54:49.186Z,14.90
2023-01-21T02:59:54.440Z,16.20
2023-01-21T03:05:09.997Z,14.50
2023-01-21T03:10:19.891Z,16.10
2023-01-21T03:15:44.551Z,15.88
2023-01-21T03:20:54.518Z,15.82
2023-01-21T03:25:59.653Z,16.33
2023-01-21T03:31:05.684Z,14.90
2023-01-21T03:36:17.463Z,15.55
2023-01-21T03:41:23.539Z,14.32
2023-01-21T03:46:34.243Z,15.63
2023-01-21T03:51:43.513Z,15.10
2023-01-21T03:56:46.366Z,15.35
2023-01-21T04:01:49.451Z,14.95
2023-01-21T04:06:53.556Z,16.00
2023-01-21T04:11:56.345Z,18.20
2023-01-21T04:16:59.194Z,17.20
2023-01-21T04:22:03.316Z,16.08
2023-01-21T04:27:06.526Z,16.38
2023-01-21T04:32:09.291Z,15.88
2023-01-21T04:37:13.649Z,16.05
2023-01-21T04:42:16.334Z,15.25
2023-01-21T04:47:19.185Z,15.93
2023-01-21T04:52:23.399Z,15.68
2023-01-21T04:57:26.240Z,15.52
2023-01-21T05:02:29.166Z,16.00
2023-01-21T05:07:33.299Z,16.15
2023-01-21T05:12:36.136Z,16.27
2023-01-21T05:17:39.196Z,15.30
2023-01-21T05:22:46.513Z,16.25
2023-01-21T05:27:53.299Z,14.65
2023-01-21T05:32:56.443Z,14.70
2023-01-21T05:38:00.592Z,14.68
2023-01-21T05:43:03.376Z,19.08
2023-01-21T05:48:06.986Z,21.63
2023-01-21T05:53:11.062Z,19.10
2023-01-21T05:58:14.031Z,20.20
2023-01-21T06:03:17.457Z,16.95
2023-01-21T06:08:21.610Z,15.65
2023-01-21T06:13:24.811Z,15.82
2023-01-21T06:18:28.054Z,16.58
2023-01-21T06:23:32.258Z,17.80
2023-01-21T06:28:35.009Z,17.55
2023-01-21T06:33:37.792Z,19.88
2023-01-21T06:38:42.003Z,21.67
2023-01-21T06:43:44.891Z,22.50
2023-01-21T06:48:47.623Z,23.17
2023-01-21T06:53:51.786Z,22.45
2023-01-21T06:58:54.651Z,20.83
2023-01-21T07:03:57.448Z,21.92
2023-01-21T07:09:01.571Z,22.52
2023-01-21T07:14:04.365Z,25.35
2023-01-21T07:19:07.519Z,26.58
2023-01-21T07:24:11.669Z,25.17
2023-01-21T07:29:14.483Z,23.65
2023-01-21T07:34:18.035Z,26.00
2023-01-21T07:39:22.184Z,24.38
2023-01-21T07:44:25.050Z,25.52
2023-01-21T07:49:27.803Z,20.00
2023-01-21T07:54:32.016Z,24.40
2023-01-21T07:59:34.948Z,24.42
2023-01-21T08:04:37.702Z,44.83
2023-01-21T08:09:42.115Z,45.00
2023-01-21T08:14:44.905Z,36.20
2023-01-21T08:19:47.684Z,33.17
2023-01-21T08:24:51.777Z,33.63
2023-01-21T08:29:54.554Z,36.35
2023-01-21T08:34:57.288Z,31.92
2023-01-21T08:40:01.503Z,32.25
2023-01-21T08:45:04.810Z,34.20
2023-01-21T08:50:09.461Z,39.00
2023-01-21T08:55:13.562Z,36.65
2023-01-21T09:00:16.980Z,39.70
2023-01-21T09:05:19.985Z,31.95
2023-01-21T09:10:42.109Z,35.05
2023-01-21T09:15:45.437Z,37.45
2023-01-21T09:20:48.391Z,42.28
2023-01-21T09:25:52.811Z,52.58
2023-01-21T09:30:57.905Z,45.70
2023-01-21T09:36:02.422Z,49.58
2023-01-21T09:41:26.428Z,53.83
2023-01-21T09:46:44.015Z,45.92
2023-01-21T09:51:52.635Z,46.33
2023-01-21T09:57:20.080Z,41.15
2023-01-21T10:02:31.004Z,39.53
2023-01-21T10:07:39.916Z,48.28
2023-01-21T10:13:06.725Z,53.47
2023-01-21T10:18:13.919Z,50.15
2023-01-21T10:23:23.562Z,48.55
2023-01-21T10:28:31.474Z,48.90
2023-01-21T10:33:34.783Z,50.58
2023-01-21T10:38:45.746Z,47.88
2023-01-21T10:43:59.109Z,31.05
2023-01-21T10:49:09.020Z,27.10
2023-01-21T10:54:22.674Z,31.20
2023-01-21T10:59:33.386Z,27.55
2023-01-21T11:04:38.395Z,23.95
2023-01-21T11:09:44.307Z,23.48
2023-01-21T11:14:51.521Z,18.63
2023-01-21T11:19:59.463Z,19.95
2023-01-21T11:25:03.494Z,19.38
2023-01-21T11:30:48.281Z,20.90
2023-01-21T11:35:52.883Z,19.83
2023-01-21T11:41:08.781Z,22.77
2023-01-21T11:46:28.237Z,17.70
2023-01-21T11:51:31.088Z,17.90
2023-01-21T11:56:33.989Z,19.00
2023-01-21T12:01:38.592Z,19.30
2023-01-21T12:06:47.697Z,17.25
2023-01-21T12:12:12.018Z,18.88
2023-01-21T12:17:23.314Z,19.70
2023-01-21T12:22:49.739Z,17.38
2023-01-21T12:28:07.222Z,20.17
2023-01-21T12:33:16.718Z,24.67
2023-01-21T12:38:24.497Z,18.60
2023-01-21T12:43:34.374Z,18.33
2023-01-21T12:48:43.252Z,13.82
2023-01-21T12:53:53.265Z,11.73
2023-01-21T12:59:00.204Z,11.85
2023-01-21T13:04:18.628Z,11.10
2023-01-21T13:09:28.749Z,8.80
2023-01-21T13:14:36.546Z,9.20
2023-01-21T13:19:41.163Z,8.57
2023-01-21T13:25:01.917Z,6.18
2023-01-21T13:30:15.533Z,5.47
2023-01-21T13:35:32.868Z,5.85
2023-01-21T13:40:51.207Z,9.52
2023-01-21T13:46:08.398Z,5.65
2023-01-21T13:51:26.595Z,7.97
2023-01-21T13:56:45.239Z,6.95
2023-01-21T14:01:55.146Z,10.68
2023-01-21T14:07:03.200Z,8.43
2023-01-21T14:12:12.319Z,9.32
2023-01-21T14:17:37.780Z,10.43
2023-01-21T14:23:08.044Z,8.90
2023-01-21T14:28:21.027Z,6.80
2023-01-21T14:33:27.634Z,8.27
2023-01-21T14:38:39.992Z,7.18
2023-01-21T14:43:51.637Z,8.30
2023-01-21T14:49:01.280Z,6.85
2023-01-21T14:54:12.983Z,7.30
2023-01-21T14:59:33.577Z,9.57
2023-01-21T15:04:40.065Z,6.30
2023-01-21T15:09:51.567Z,8.65
2023-01-21T15:14:58.461Z,7.97
2023-01-21T15:20:42.117Z,7.43
2023-01-21T15:26:05.313Z,8.70
2023-01-21T15:31:10.359Z,6.63
2023-01-21T15:36:21.633Z,8.27
2023-01-21T15:41:39.504Z,9.23
2023-01-21T15:46:50.145Z,6.80
2023-01-21T15:52:06.350Z,9.88
2023-01-21T15:57:31.165Z,7.20
2023-01-21T16:02:40.403Z,9.73
2023-01-21T16:07:55.158Z,9.40
2023-01-21T16:13:10.244Z,7.45
2023-01-21T16:18:24.303Z,6.55
2023-01-21T16:23:35.083Z,6.18
2023-01-21T16:28:43.866Z,6.85
2023-01-21T16:33:46.602Z,6.22
2023-01-21T16:38:52.446Z,7.03
2023-01-21T16:43:59.744Z,6.93
2023-01-21T16:49:04.733Z,11.50
2023-01-21T16:54:24.133Z,29.77
2023-01-21T16:59:30.789Z,8.45
2023-01-21T17:04:33.820Z,5.63
2023-01-21T17:09:38.037Z,6.82
2023-01-21T17:14:42.274Z,6.28
2023-01-21T17:19:45.168Z,6.22
2023-01-21T17:25:01.091Z,6.28
2023-01-21T17:30:32.379Z,5.67
2023-01-21T17:35:35.557Z,6.63
2023-01-21T17:40:42.082Z,10.68
2023-01-21T17:45:49.378Z,19.83
2023-01-21T17:50:53.081Z,19.30
2023-01-21T17:55:58.330Z,11.60
2023-01-21T18:01:04.280Z,13.50
2023-01-21T18:06:16.634Z,9.63
2023-01-21T18:11:19.677Z,9.55
2023-01-21T18:16:23.752Z,8.93
2023-01-21T18:21:26.531Z,9.30
2023-01-21T18:26:32.548Z,7.68
2023-01-21T18:31:36.800Z,7.53
2023-01-21T18:36:40.840Z,7.30
2023-01-21T18:41:43.785Z,8.43
2023-01-21T18:46:48.067Z,7.03
2023-01-21T18:51:51.615Z,8.60
2023-01-21T18:56:54.564Z,9.00
2023-01-21T19:01:58.754Z,9.20
2023-01-21T19:07:01.871Z,10.75
2023-01-21T19:12:05.009Z,11.07
2023-01-21T19:17:13.330Z,11.82
2023-01-21T19:22:16.690Z,10.68
2023-01-21T19:27:26.035Z,9.93
2023-01-21T19:32:30.247Z,12.07
2023-01-21T19:37:33.515Z,11.63
2023-01-21T19:42:36.299Z,10.88
2023-01-21T19:47:41.449Z,10.45
2023-01-21T19:52:44.279Z,12.10
2023-01-21T19:57:50.643Z,17.35
2023-01-21T20:02:55.466Z,13.52
2023-01-21T20:07:58.282Z,12.85
2023-01-21T20:13:01.098Z,12.20
2023-01-21T20:18:06.081Z,11.77
2023-01-21T20:23:13.850Z,12.90
2023-01-21T20:28:19.626Z,12.15
2023-01-21T20:33:26.368Z,11.43
2023-01-21T20:43:33.349Z,12.77
2023-01-21T20:48:41.488Z,12.40
2023-01-21T20:53:44.329Z,13.35
2023-01-21T20:58:48.519Z,13.35
2023-01-21T21:03:53.382Z,10.98
2023-01-21T21:08:56.252Z,13.40
2023-01-21T21:13:59.570Z,14.02
2023-01-21T21:19:04.016Z,13.30
2023-01-21T21:24:07.548Z,11.80
2023-01-21T21:29:13.534Z,12.82
2023-01-21T21:34:17.663Z,12.20
2023-01-21T21:39:22.006Z,14.43
2023-01-21T21:44:24.720Z,14.85
2023-01-21T21:49:29.693Z,13.50
2023-01-21T21:54:32.528Z,13.48
2023-01-21T21:59:35.270Z,14.15
2023-01-21T22:04:39.437Z,14.68
2023-01-21T22:09:42.224Z,13.80
2023-01-21T22:14:44.989Z,13.18
2023-01-21T22:19:49.208Z,14.55
2023-01-21T22:24:54.500Z,14.10
2023-01-21T22:29:57.608Z,19.83
2023-01-21T22:35:02.122Z,17.85
2023-01-21T22:40:05.625Z,18.88
2023-01-21T22:45:09.809Z,15.55
2023-01-21T22:50:14.512Z,19.42
2023-01-21T22:55:17.888Z,15.05
2023-01-21T23:00:36.911Z,16.45
2023-01-21T23:05:41.071Z,16.58
2023-01-21T23:10:44.360Z,18.60
2023-01-21T23:15:48.202Z,16.77
2023-01-21T23:20:52.529Z,19.13
2023-01-21T23:25:55.334Z,18.30
2023-01-21T23:30:58.193Z,15.02
2023-01-21T23:36:02.620Z,16.83
2023-01-21T23:41:07.072Z,16.60
2023-01-21T23:46:12.702Z,16.90
2023-01-21T23:51:18.411Z,16.48
2023-01-21T23:56:23.367Z,17.73
